Time;durP1;ratioP1;P1;durP2;ratioP2;P2;SDS_P1;SDS_P2;PMS_P1;PMS_P2;Temp;Humidity;BMP_temperature;BMP_pressure;BME280_temperature;BME280_humidity;BME280_pressure;Samples;Min_cycle;Max_cycle;Signal;HPM_P1;HPM_P2
2021/03/20 02:22:07;;;;;;;4.67;1.47;;;-1.40;99.90;;;;;;6246741;22;20020;-91
2021/03/20 02:25:27;;;;;;;5.10;1.60;;;-1.30;99.90;;;;;;6235968;23;20020;-91
2021/03/20 02:40:21;;;;;;;3.90;1.20;;;-0.90;99.90;;;;;;6196402;22;20036;-91
2021/03/20 02:43:26;;;;;;;5.65;1.05;;;-0.90;99.90;;;;;;6212958;23;20049;-91
2021/03/20 02:46:12;;;;;;;6.20;1.77;;;-0.90;99.90;;;;;;6144484;23;20012;-90
2021/03/20 02:48:51;;;;;;;4.37;1.30;;;-0.90;99.90;;;;;;6160260;23;20013;-91
2021/03/20 03:49:27;;;;;;;4.23;1.50;;;-0.80;99.90;;;;;;6234773;23;20068;-93
2021/03/20 03:52:29;;;;;;;7.10;1.70;;;-0.90;99.90;;;;;;6221896;23;20015;-93
2021/03/20 04:02:24;;;;;;;8.50;1.80;;;-0.80;99.90;;;;;;6213998;22;20350;-87
2021/03/20 04:08:35;;;;;;;8.53;1.97;;;-0.80;99.90;;;;;;6239162;22;20028;-90
2021/03/20 04:29:51;;;;;;;6.53;2.17;;;-1.00;99.90;;;;;;6238334;23;20028;-91
2021/03/20 04:32:31;;;;;;;6.60;2.30;;;-1.00;99.90;;;;;;6217382;23;20024;-92
2021/03/20 04:41:10;;;;;;;7.27;2.00;;;-0.80;99.90;;;;;;6233789;22;20012;-90
2021/03/20 04:43:54;;;;;;;7.23;2.20;;;-0.90;99.90;;;;;;6246007;22;20056;-92
2021/03/20 06:53:01;;;;;;;4.00;1.50;;;0.00;99.90;;;;;;6252540;22;20020;-92
2021/03/20 07:22:38;;;;;;;6.30;1.67;;;1.50;99.90;;;;;;6225147;23;20618;-93
2021/03/20 07:26:21;;;;;;;4.30;1.53;;;1.50;99.50;;;;;;6198095;22;20052;-94
2021/03/20 07:28:55;;;;;;;3.53;1.40;;;1.50;99.20;;;;;;6269859;23;20004;-94
2021/03/20 07:39:10;;;;;;;6.20;1.33;;;1.50;98.80;;;;;;6278258;22;20063;-92
2021/03/20 07:42:43;;;;;;;5.50;1.37;;;1.50;98.80;;;;;;6193035;23;20081;-92
2021/03/20 07:57:37;;;;;;;3.80;1.10;;;1.70;96.20;;;;;;6176232;23;20029;-93
2021/03/20 08:00:24;;;;;;;5.90;2.13;;;1.80;93.60;;;;;;6119597;23;20021;-95
2021/03/20 08:02:52;;;;;;;7.73;1.30;;;1.80;95.10;;;;;;6142713;23;20036;-94
2021/03/20 08:05:33;;;;;;;5.50;1.73;;;2.00;99.20;;;;;;6174754;23;20021;-96
2021/03/20 08:08:18;;;;;;;4.80;1.40;;;2.10;99.50;;;;;;6147145;23;20035;-94
2021/03/20 08:10:49;;;;;;;5.00;1.40;;;2.30;95.30;;;;;;6171790;23;20028;-96
2021/03/20 08:14:06;;;;;;;6.73;1.50;;;2.50;94.50;;;;;;6171987;23;20021;-95
2021/03/20 08:16:58;;;;;;;2.13;1.00;;;2.60;91.20;;;;;;6146660;23;20023;-94
2021/03/20 08:19:40;;;;;;;2.58;1.02;;;2.80;88.60;;;;;;6181482;22;20022;-94
2021/03/20 08:29:47;;;;;;;6.60;1.43;;;3.10;82.00;;;;;;6266382;22;20024;-95
2021/03/20 08:33:01;;;;;;;3.20;1.60;;;3.30;78.90;;;;;;6211428;23;20020;-96
2021/03/20 08:35:45;;;;;;;7.37;1.30;;;3.30;76.70;;;;;;6234267;23;20016;-95
2021/03/20 08:38:48;;;;;;;3.73;1.20;;;3.20;77.20;;;;;;6232174;22;20034;-96
2021/03/20 08:42:02;;;;;;;4.30;1.10;;;3.30;75.00;;;;;;6260074;22;20453;-96
2021/03/20 08:45:12;;;;;;;8.23;1.30;;;3.30;74.00;;;;;;6236606;22;20020;-96
2021/03/20 08:48:12;;;;;;;5.43;1.58;;;3.30;74.00;;;;;;6236685;22;20019;-96
2021/03/20 08:51:03;;;;;;;10.60;1.60;;;3.30;74.10;;;;;;6241913;22;20015;-96
2021/03/20 08:53:55;;;;;;;9.97;1.60;;;3.20;74.80;;;;;;6243368;22;20015;-96
2021/03/20 08:56:52;;;;;;;4.30;1.20;;;3.20;73.70;;;;;;6273537;22;20041;-96
2021/03/20 08:59:31;;;;;;;5.20;1.47;;;3.30;73.30;;;;;;6255894;22;20030;-96
2021/03/20 09:02:31;;;;;;;8.02;1.50;;;3.50;72.00;;;;;;6222456;22;20030;-96
2021/03/20 09:05:41;;;;;;;6.53;2.57;;;3.70;70.60;;;;;;6207940;22;20015;-95
2021/03/20 09:08:24;;;;;;;10.17;2.33;;;3.80;69.90;;;;;;6236041;22;20019;-96
2021/03/20 09:11:02;;;;;;;6.22;2.10;;;3.70;69.00;;;;;;6265063;22;20015;-96
2021/03/20 09:13:41;;;;;;;7.07;1.60;;;3.60;69.80;;;;;;6239826;22;20089;-96
2021/03/20 09:16:27;;;;;;;4.90;1.50;;;3.50;69.00;;;;;;6265604;22;20024;-96
2021/03/20 09:19:04;;;;;;;3.20;1.07;;;3.50;69.30;;;;;;6237687;22;20022;-94
2021/03/20 09:21:34;;;;;;;6.43;1.90;;;3.60;69.30;;;;;;6236538;22;20016;-96
2021/03/20 09:24:10;;;;;;;5.87;2.10;;;3.60;69.80;;;;;;6240710;22;20019;-96
2021/03/20 09:26:42;;;;;;;4.53;1.90;;;3.90;69.00;;;;;;6239820;22;20024;-96
2021/03/20 09:29:16;;;;;;;2.45;1.10;;;4.20;66.50;;;;;;6241098;22;20445;-95
2021/03/20 09:32:18;;;;;;;11.35;2.10;;;4.60;63.00;;;;;;6287696;22;20030;-96
2021/03/20 09:34:54;;;;;;;3.00;1.10;;;5.10;60.40;;;;;;6122126;23;20021;-96
2021/03/20 09:37:52;;;;;;;4.18;1.30;;;5.40;60.30;;;;;;6146633;23;20025;-96
2021/03/20 09:40:51;;;;;;;5.25;1.50;;;5.70;58.70;;;;;;6149238;23;20017;-96
2021/03/20 09:43:42;;;;;;;2.28;1.15;;;6.20;57.20;;;;;;6166584;23;20316;-96
2021/03/20 09:46:57;;;;;;;2.53;0.98;;;6.20;54.60;;;;;;6178031;23;20032;-96
2021/03/20 09:49:51;;;;;;;10.07;1.40;;;6.00;53.10;;;;;;6141291;23;20028;-95
2021/03/20 09:52:47;;;;;;;4.38;1.30;;;6.00;54.50;;;;;;6093616;23;20036;-94
2021/03/20 09:55:41;;;;;;;8.05;2.75;;;6.60;52.70;;;;;;6094411;23;20022;-94
2021/03/20 09:58:39;;;;;;;6.78;2.25;;;7.00;53.10;;;;;;6087385;23;20726;-93
2021/03/20 10:01:13;;;;;;;6.90;1.55;;;7.10;50.60;;;;;;6086442;23;20083;-92
2021/03/20 10:03:54;;;;;;;5.68;1.65;;;6.60;50.60;;;;;;6083886;23;20028;-92
2021/03/20 10:06:31;;;;;;;5.00;1.40;;;6.50;53.60;;;;;;6086323;23;20022;-92
2021/03/20 10:09:24;;;;;;;7.25;1.50;;;7.00;55.20;;;;;;6096265;23;20082;-90
2021/03/20 10:12:31;;;;;;;7.78;1.60;;;7.20;53.80;;;;;;6125690;23;20027;-94
2021/03/20 10:15:21;;;;;;;5.57;1.50;;;7.60;51.70;;;;;;6182122;23;20020;-96
2021/03/20 10:18:21;;;;;;;3.20;1.10;;;7.50;50.20;;;;;;6152809;23;20020;-96
2021/03/20 10:21:08;;;;;;;4.20;1.10;;;7.50;47.20;;;;;;6175236;23;20021;-96
2021/03/20 10:23:44;;;;;;;4.90;1.13;;;7.20;47.80;;;;;;6128760;23;20316;-96
2021/03/20 10:26:30;;;;;;;3.50;1.13;;;7.20;46.60;;;;;;6186967;22;20019;-96
2021/03/20 10:29:08;;;;;;;4.57;1.40;;;6.90;46.40;;;;;;6194944;22;20042;-96
2021/03/20 10:31:45;;;;;;;5.53;1.23;;;6.40;48.50;;;;;;6239578;22;20022;-96
2021/03/20 10:34:27;;;;;;;2.80;1.10;;;6.30;49.10;;;;;;6241812;22;20024;-96
2021/03/20 10:37:14;;;;;;;3.15;1.23;;;6.30;48.50;;;;;;6218385;22;20434;-96
2021/03/20 10:39:48;;;;;;;2.38;1.10;;;6.40;48.20;;;;;;6240080;22;20030;-96
2021/03/20 10:42:24;;;;;;;3.72;0.98;;;6.60;47.50;;;;;;6218591;22;20034;-96
2021/03/20 10:45:07;;;;;;;5.93;1.42;;;6.80;46.80;;;;;;6243044;22;20039;-96
2021/03/20 10:47:39;;;;;;;5.63;1.17;;;7.10;48.70;;;;;;6238038;22;20026;-96
2021/03/20 10:50:41;;;;;;;7.50;1.58;;;7.50;48.90;;;;;;6238597;22;20015;-96
2021/03/20 10:53:25;;;;;;;4.50;1.27;;;7.90;49.60;;;;;;6260862;22;20020;-96
2021/03/20 10:56:04;;;;;;;5.35;1.20;;;8.10;48.40;;;;;;6256320;22;20030;-96
2021/03/20 10:58:52;;;;;;;5.28;2.50;;;7.90;48.30;;;;;;6249030;22;20013;-96
2021/03/20 11:01:31;;;;;;;7.85;1.27;;;7.60;48.90;;;;;;6244662;22;20015;-95
2021/03/20 11:04:05;;;;;;;5.03;1.25;;;7.40;49.00;;;;;;6265692;22;20023;-96
2021/03/20 11:06:35;;;;;;;5.50;1.40;;;7.50;48.30;;;;;;6244027;22;20030;-96
2021/03/20 11:09:15;;;;;;;6.10;1.70;;;7.80;48.20;;;;;;6244491;22;20016;-96
2021/03/20 11:11:44;;;;;;;6.20;1.58;;;8.00;48.40;;;;;;6266178;22;20030;-96
2021/03/20 11:14:15;;;;;;;3.40;1.40;;;8.40;47.90;;;;;;6218223;22;20023;-95
2021/03/20 11:16:58;;;;;;;5.82;1.30;;;8.80;47.40;;;;;;6268170;22;20034;-95
2021/03/20 11:19:37;;;;;;;4.03;1.30;;;9.20;46.10;;;;;;6246043;22;20019;-96
2021/03/20 11:22:18;;;;;;;2.88;1.30;;;9.40;45.30;;;;;;6246083;22;20034;-94
2021/03/20 11:24:54;;;;;;;2.30;1.02;;;9.50;44.00;;;;;;6254228;22;20056;-94
2021/03/20 11:27:25;;;;;;;5.38;1.67;;;9.40;44.30;;;;;;6245953;22;20379;-96
2021/03/20 11:29:59;;;;;;;3.30;1.30;;;9.10;44.60;;;;;;6254505;22;20100;-95
2021/03/20 11:32:32;;;;;;;2.30;1.20;;;8.60;44.70;;;;;;6279509;22;20067;-95
2021/03/20 11:35:18;;;;;;;3.00;1.02;;;8.00;46.00;;;;;;6254130;22;20059;-95
2021/03/20 11:37:48;;;;;;;7.68;1.20;;;7.20;47.10;;;;;;6250762;22;20344;-96
2021/03/20 11:40:26;;;;;;;3.50;1.20;;;6.60;48.90;;;;;;6246226;22;20268;-96
2021/03/20 11:43:01;;;;;;;2.15;1.05;;;6.20;48.70;;;;;;6238724;22;20019;-96
2021/03/20 11:45:38;;;;;;;7.75;1.63;;;5.60;50.90;;;;;;6244462;22;20017;-96
2021/03/20 11:48:16;;;;;;;5.03;1.35;;;5.40;51.60;;;;;;6249474;22;20019;-96
2021/03/20 11:50:58;;;;;;;6.97;1.30;;;5.10;52.00;;;;;;6249538;22;20105;-96
2021/03/20 11:53:30;;;;;;;4.80;1.40;;;4.80;53.50;;;;;;6251195;22;20019;-95
2021/03/20 11:56:13;;;;;;;2.78;1.20;;;4.60;54.50;;;;;;6250837;22;20075;-96
2021/03/20 11:58:48;;;;;;;2.60;1.20;;;4.70;54.40;;;;;;6248944;22;20020;-96
2021/03/20 12:01:48;;;;;;;3.78;1.38;;;4.80;54.20;;;;;;6250328;22;20068;-96
2021/03/20 12:07:29;;;;;;;3.60;1.52;;;4.90;54.60;;;;;;6263936;22;20004;-96
2021/03/20 12:10:13;;;;;;;4.15;1.88;;;5.30;53.80;;;;;;6193955;23;20024;-96
2021/03/20 12:12:51;;;;;;;3.88;1.30;;;5.70;52.30;;;;;;6223002;23;20094;-96
2021/03/20 12:15:25;;;;;;;4.22;1.85;;;5.30;53.20;;;;;;6219389;23;20020;-96
2021/03/20 12:17:57;;;;;;;4.43;1.40;;;4.90;54.70;;;;;;6244556;23;20016;-96
2021/03/20 12:26:37;;;;;;;5.68;1.73;;;4.70;54.90;;;;;;6274242;22;20051;-95
2021/03/20 12:29:40;;;;;;;1.98;0.82;;;4.70;55.30;;;;;;6217232;22;20004;-96
2021/03/20 12:36:44;;;;;;;5.10;1.25;;;5.00;53.20;;;;;;6313616;22;20120;-96
2021/03/20 12:39:15;;;;;;;3.03;0.93;;;4.90;51.90;;;;;;6276867;22;20059;-96
2021/03/20 12:41:48;;;;;;;4.93;1.35;;;5.00;51.70;;;;;;6275476;22;20030;-96
2021/03/20 12:44:22;;;;;;;8.02;1.48;;;5.00;51.40;;;;;;6272580;22;20029;-94
2021/03/20 12:47:00;;;;;;;3.10;1.20;;;4.90;52.50;;;;;;6250713;22;20019;-95
2021/03/20 12:52:36;;;;;;;4.22;1.25;;;4.50;54.20;;;;;;6258159;22;20014;-96
2021/03/20 12:55:11;;;;;;;4.13;1.00;;;4.70;54.30;;;;;;6221199;22;20064;-96
2021/03/20 13:01:49;;;;;;;3.40;1.38;;;4.80;54.00;;;;;;6260549;22;20012;-96
2021/03/20 13:04:23;;;;;;;6.82;1.33;;;5.20;53.80;;;;;;6276383;22;20010;-96
2021/03/20 13:06:52;;;;;;;3.88;1.50;;;5.30;52.50;;;;;;6248452;22;20019;-96
2021/03/20 13:09:38;;;;;;;4.10;1.30;;;5.20;52.10;;;;;;6269102;22;20016;-94
2021/03/20 13:12:14;;;;;;;3.58;1.45;;;5.60;52.40;;;;;;6246529;22;20016;-96
2021/03/20 13:14:46;;;;;;;4.57;2.25;;;5.90;51.30;;;;;;6247885;22;20020;-96
2021/03/20 13:17:31;;;;;;;5.40;1.63;;;6.00;51.60;;;;;;6295476;22;20016;-96
2021/03/20 13:19:59;;;;;;;6.85;1.85;;;6.10;52.10;;;;;;6243657;22;20390;-96
2021/03/20 13:22:27;;;;;;;5.22;1.33;;;6.30;51.80;;;;;;6241951;22;20024;-95
2021/03/20 13:24:57;;;;;;;3.75;1.60;;;6.60;51.10;;;;;;6264985;22;20031;-96
2021/03/20 13:27:35;;;;;;;4.45;1.60;;;6.90;50.40;;;;;;6238670;22;20038;-96
2021/03/20 13:30:14;;;;;;;3.97;1.27;;;7.20;49.20;;;;;;6213040;22;20022;-96
2021/03/20 13:32:48;;;;;;;3.58;1.15;;;7.70;48.40;;;;;;6237551;22;20025;-96
2021/03/20 13:35:22;;;;;;;4.53;1.55;;;7.50;46.10;;;;;;6244370;22;20020;-96
2021/03/20 13:37:50;;;;;;;3.47;1.25;;;7.40;47.80;;;;;;6216104;22;20029;-96
2021/03/20 13:40:21;;;;;;;4.60;1.67;;;7.80;47.40;;;;;;6259866;22;20070;-95
2021/03/20 13:42:54;;;;;;;4.85;1.27;;;8.30;45.90;;;;;;6235677;22;20020;-96
2021/03/20 13:45:28;;;;;;;4.68;1.13;;;8.20;44.40;;;;;;6240761;22;20020;-96
2021/03/20 13:48:02;;;;;;;5.32;1.58;;;7.50;46.30;;;;;;6243426;22;20025;-96
2021/03/20 13:50:36;;;;;;;4.43;1.52;;;7.70;47.70;;;;;;6218207;22;20016;-96
2021/03/20 14:02:36;;;;;;;5.45;1.70;;;5.10;53.30;;;;;;6289525;22;20020;-96
2021/03/20 14:05:14;;;;;;;5.93;1.90;;;5.80;51.40;;;;;;6249222;22;20016;-96
2021/03/20 14:07:45;;;;;;;4.65;1.33;;;6.30;49.80;;;;;;6271803;22;20026;-96
2021/03/20 14:10:17;;;;;;;3.15;1.13;;;6.10;49.60;;;;;;6272337;22;20022;-96
2021/03/20 14:13:06;;;;;;;4.05;1.48;;;5.90;50.10;;;;;;6268115;22;20034;-95
2021/03/20 14:15:35;;;;;;;5.55;1.15;;;5.70;50.50;;;;;;6244850;22;20020;-96
2021/03/20 14:18:04;;;;;;;4.43;1.45;;;5.60;50.90;;;;;;6267725;22;20030;-95
2021/03/20 14:23:44;;;;;;;8.45;1.45;;;4.80;54.60;;;;;;6258331;22;20020;-96
2021/03/20 14:27:11;;;;;;;3.17;1.20;;;4.70;55.00;;;;;;6192679;23;20022;-96
2021/03/20 14:30:07;;;;;;;5.75;1.90;;;5.00;54.70;;;;;;6219540;23;20083;-96
2021/03/20 14:32:45;;;;;;;5.50;1.50;;;5.50;54.30;;;;;;6251805;22;20018;-96
2021/03/20 14:50:32;;;;;;;5.68;1.75;;;4.70;55.50;;;;;;6280419;22;20020;-96
2021/03/20 14:53:03;;;;;;;3.13;1.50;;;4.80;54.70;;;;;;6255029;22;20082;-96
2021/03/20 15:29:42;;;;;;;4.73;1.27;;;4.50;53.60;;;;;;6297129;22;20019;-96
2021/03/20 15:33:07;;;;;;;8.13;2.13;;;4.70;52.50;;;;;;6239005;22;20015;-96
2021/03/20 15:39:53;;;;;;;2.93;1.27;;;4.80;51.90;;;;;;6301330;22;20010;-96
2021/03/20 15:42:26;;;;;;;5.13;1.40;;;4.30;53.00;;;;;;6240433;22;20028;-96
2021/03/20 15:45:06;;;;;;;6.00;1.97;;;4.30;53.90;;;;;;6270313;22;20014;-96
2021/03/20 15:47:38;;;;;;;4.40;1.70;;;4.30;54.00;;;;;;6244753;22;20034;-96
2021/03/20 15:50:13;;;;;;;3.77;2.30;;;4.20;53.90;;;;;;6244539;22;20022;-95
2021/03/20 23:20:50;;;;;;;4.60;2.20;;;2.90;75.70;;;;;;6249594;22;20004;-84
2021/03/20 23:23:25;;;;;;;5.37;1.67;;;2.90;75.60;;;;;;6224993;22;20051;-86
